Pagrindinis puslapis
METAR-TAF:

METAR-TAF

Oro uostai :

Balmaceda, Čilė

platuma: 45-55S, ilguma: 071-41W, Aukštis: 520 m

Dabartinis oras

Ataskaita buvo paskelbta 11 minutes, ne 17:00 UTC
Vėjas 17 kt iš Vakarų/Šiaurės Vakarų
Temperatūra 17°C
Drėgmė 59%
Slėgis 1006 hPa
Matomumas 10 km arba daugiau
Apsiniaukę ne aukštis 3000 ft

METAR: SCBA 271700Z 30017KT 9999 OVC030 17/09 Q1006

Laikas: 14:11 (17:11 UTC)

Prognozė

Ataskaita buvo paskelbta 25 valandos ir 0 minutes, ne 16:11 UTC
Prognozė galioja nuo 26 metu 18 UTC su 27 metu 18 UTC
Vėjas 15 kt iš Vakarų/Šiaurės Vakarų
Matomumas 10 km arba daugiau
Mažai debesys ne aukštis 4000 ft
Išsisklaidę debesys ne aukštis 8000 ft
Tapsmas
nuo 27 metu 01 UTC su 27 metu 03 UTC
Vėjas 5 kt iš Šiaurės Vakarų
Tapsmas
nuo 27 metu 12 UTC su 17 metu 14 UTC
Vėjas 15 kt iš Vakarų/Šiaurės Vakarų
Matomumas: 7000 m
Su prošvaistėmis ne aukštis 1500 ft
Su prošvaistėmis ne aukštis 3000 ft
lietus,

TAF: SCBA 261611Z 2618/2718 29015KT 9999 FEW040 SCT080 TX19/2619Z TN10/2710Z BECMG 2701/2703 31005KT BECMG 2712/1714 30015KT 7000 -RA BKN015 BKN030

Orai ataskaitas ir orų prognozės (METAR, TAF).

turimą stotys yra geltonos ir raudonos taškus žemėlapyje.

Perkelti pele per norėdami pamatyti stoties vardą.

Tada spustelėkite, norėdami matyti oro stebėjimo ir prognozės.

Norėdami pakeisti žemėlapį: spustelėkite ant žalios mygtukų su juodo kryžiaus žemyn,; žalią mygtuką su brūkšneliu, jei norite nutolinti; arba žalių rodyklių gretimoms žemėlapius.


METAR-TAF: